Sidnaw, MI

1:54 PM EDT on September 02, 2014 (GMT -0400)
Ford | Change Station
CLOSE
Current Station
Airport
Location: Iron Mountain,
Elevation: 1181 ft
Nearby Weather Stations

Elev 1181 ft 45.82 °N, 88.11 °W | Updated 1 hour ago

Clear
Clear
69 °F
Feels Like 69 °F
N
9
Wind Variable Wind from West

Today
High -- | Low -- °F
--% Chance of Precip.
Yesterday
High -- | Low -- °F
Precip. -- in
7:16 AM 8:31 PM
First Quarter, 53% visible
Pressure 29.83 in
Visibility 10.0 miles
Clouds Clear
Dew Point 54 °F
Humidity 58%
Rainfall 0.00 in
Snow Depth Not available.
UV 7 out of 12
Pollen 8.80 out of 12
Air Quality Not available.
Flu Activity Not available.
METAR KIMT 021654Z AUTO 27008KT 10SM CLR 21/12 A2983 RMK AO2 SLP102 T02060122 TSNO

More Conditions Fewer Conditions

Pressure 29.83 in
Visibility 10.0 miles
Clouds Clear
Dew Point 54 °F
Humidity 58%
Rainfall 0.00 in
Snow Depth Not available.
UV 7 out of 12
Pollen 8.80 out of 12
Air Quality Not available.
Flu Activity Not available.
METAR KIMT 021654Z AUTO 27008KT 10SM CLR 21/12 A2983 RMK AO2 SLP102 T02060122 TSNO

More Conditions Fewer Conditions

10-Day Weather Forecast

Almanac

Astronomy

Sep. 02, 2014 Rise Set
Actual Time 7:16 AM EDT 8:31 PM EDT
Civil Twilight 6:45 AM EDT 9:02 PM EDT
Nautical Twilight 6:07 AM EDT 9:40 PM EDT
Astronomical Twilight 5:27 AM EDT 10:20 PM EDT
Moon 3:25 PM EDT 12:10 AM EDT
Length of Visible Light 14h 17m
Length of Day
13h 15m
Tomorrow will be 3m 12s shorter.
First Quarter, 53% of the Moon is Illuminated
Today
First Quarter
Sep 8
Full
Sep 15
Last Quarter
Sep 24
New
Oct 1
First Quarter

Today's Extremes

State Highs State Lows

Community

WunderPhotos

Upload Photos

1,749,724 photos uploaded!

WunderBlogs® & News

Nearby

Snow Depth

Station Depth Elevation
No new snow has been reported.

Earthquake Activity

City Distance Mag. Time & Date
No recent earthquake activity has been reported nearby.
Minimum magnitude displayed is 2.5.

Coastal Water Temperatures

Place Temperature
No Stations Reporting

Nearby Weather Stations